sensor_id;sensor_type;location;lat;lon;timestamp;pressure;altitude;pressure_sealevel;temperature;humidity
68506;BME280;55509;50.680;17.942;2022-10-03T00:00:35;99552.48;;;10.01;88.05
68506;BME280;55509;50.680;17.942;2022-10-03T00:13:19;99553.19;;;9.95;88.35
68506;BME280;55509;50.680;17.942;2022-10-03T00:29:44;99550.40;;;9.88;89.28
68506;BME280;55509;50.680;17.942;2022-10-03T00:33:13;99552.33;;;9.88;89.07
68506;BME280;55509;50.680;17.942;2022-10-03T00:36:24;99552.13;;;9.89;88.84
68506;BME280;55509;50.680;17.942;2022-10-03T00:49:30;99537.65;;;10.04;89.28
68506;BME280;55509;50.680;17.942;2022-10-03T00:55:48;99541.07;;;10.14;88.94
68506;BME280;55509;50.680;17.942;2022-10-03T01:32:32;99548.61;;;10.27;88.94
68506;BME280;55509;50.680;17.942;2022-10-03T01:35:58;99550.80;;;10.30;88.80
68506;BME280;55509;50.680;17.942;2022-10-03T01:45:54;99547.96;;;10.37;88.56
68506;BME280;55509;50.680;17.942;2022-10-03T01:49:20;99550.27;;;10.37;88.44
68506;BME280;55509;50.680;17.942;2022-10-03T02:02:38;99555.87;;;10.50;87.99
68506;BME280;55509;50.680;17.942;2022-10-03T02:05:54;99563.56;;;10.52;88.03
68506;BME280;55509;50.680;17.942;2022-10-03T02:09:35;99556.05;;;10.50;88.16
68506;BME280;55509;50.680;17.942;2022-10-03T02:12:48;99558.49;;;10.50;87.93
68506;BME280;55509;50.680;17.942;2022-10-03T02:22:26;99560.79;;;10.57;87.33
68506;BME280;55509;50.680;17.942;2022-10-03T02:35:54;99569.62;;;10.55;87.49
68506;BME280;55509;50.680;17.942;2022-10-03T03:06:30;99588.03;;;10.45;86.56
68506;BME280;55509;50.680;17.942;2022-10-03T03:14:13;99588.20;;;10.45;86.30
68506;BME280;55509;50.680;17.942;2022-10-03T03:17:31;99585.59;;;10.42;86.33
68506;BME280;55509;50.680;17.942;2022-10-03T03:27:34;99594.71;;;10.43;85.73
68506;BME280;55509;50.680;17.942;2022-10-03T03:30:52;99588.39;;;10.43;85.49
68506;BME280;55509;50.680;17.942;2022-10-03T03:34:11;99591.63;;;10.41;85.41
68506;BME280;55509;50.680;17.942;2022-10-03T03:37:29;99596.19;;;10.41;85.30
68506;BME280;55509;50.680;17.942;2022-10-03T03:50:47;99598.17;;;10.39;85.07
68506;BME280;55509;50.680;17.942;2022-10-03T03:57:48;99597.84;;;10.39;85.49
68506;BME280;55509;50.680;17.942;2022-10-03T04:07:49;99602.80;;;10.25;86.09
68506;BME280;55509;50.680;17.942;2022-10-03T04:11:17;99610.27;;;10.21;86.23
68506;BME280;55509;50.680;17.942;2022-10-03T04:14:53;99612.16;;;10.16;86.47
68506;BME280;55509;50.680;17.942;2022-10-03T04:22:21;99602.40;;;10.08;86.97
68506;BME280;55509;50.680;17.942;2022-10-03T04:25:50;99602.27;;;10.06;87.15
68506;BME280;55509;50.680;17.942;2022-10-03T04:29:45;99600.86;;;10.05;87.30
68506;BME280;55509;50.680;17.942;2022-10-03T04:33:17;99592.30;;;10.04;87.46
68506;BME280;55509;50.680;17.942;2022-10-03T04:36:40;99590.63;;;10.00;87.38
68506;BME280;55509;50.680;17.942;2022-10-03T04:39:53;99589.42;;;10.00;87.69
68506;BME280;55509;50.680;17.942;2022-10-03T04:49:48;99591.60;;;10.03;87.50
68506;BME280;55509;50.680;17.942;2022-10-03T04:56:22;99598.10;;;10.04;87.29
68506;BME280;55509;50.680;17.942;2022-10-03T04:59:37;99602.98;;;10.05;87.02
68506;BME280;55509;50.680;17.942;2022-10-03T05:16:24;99607.09;;;10.09;87.62
68506;BME280;55509;50.680;17.942;2022-10-03T05:19:41;99613.03;;;10.10;87.39
68506;BME280;55509;50.680;17.942;2022-10-03T05:22:55;99603.28;;;10.13;87.09
68506;BME280;55509;50.680;17.942;2022-10-03T05:29:37;99609.47;;;10.25;86.78
68506;BME280;55509;50.680;17.942;2022-10-03T05:33:24;99611.64;;;10.35;86.53
68506;BME280;55509;50.680;17.942;2022-10-03T05:46:46;99607.71;;;10.87;83.94
68506;BME280;55509;50.680;17.942;2022-10-03T05:53:57;99607.30;;;10.83;84.23
68506;BME280;55509;50.680;17.942;2022-10-03T06:00:14;99607.64;;;11.61;81.93
68506;BME280;55509;50.680;17.942;2022-10-03T06:09:58;99617.32;;;12.85;77.16
68506;BME280;55509;50.680;17.942;2022-10-03T06:16:43;99618.13;;;12.64;76.17
68506;BME280;55509;50.680;17.942;2022-10-03T06:30:09;99625.79;;;11.66;80.14
68506;BME280;55509;50.680;17.942;2022-10-03T06:44:05;99640.42;;;10.87;83.83
68506;BME280;55509;50.680;17.942;2022-10-03T06:57:00;99640.41;;;10.99;84.46
68506;BME280;55509;50.680;17.942;2022-10-03T07:00:20;99644.34;;;11.14;84.31
68506;BME280;55509;50.680;17.942;2022-10-03T07:30:24;99666.13;;;11.77;81.39
68506;BME280;55509;50.680;17.942;2022-10-03T07:47:58;99676.93;;;12.62;78.93
68506;BME280;55509;50.680;17.942;2022-10-03T08:07:47;99673.34;;;13.44;76.40
68506;BME280;55509;50.680;17.942;2022-10-03T08:20:55;99672.31;;;14.72;71.38
68506;BME280;55509;50.680;17.942;2022-10-03T08:30:39;99681.05;;;14.71;70.60
68506;BME280;55509;50.680;17.942;2022-10-03T08:34:08;99680.10;;;14.65;71.20
68506;BME280;55509;50.680;17.942;2022-10-03T09:36:00;99697.77;;;13.69;72.02
68506;BME280;55509;50.680;17.942;2022-10-03T09:53:03;99688.69;;;14.95;67.12
68506;BME280;55509;50.680;17.942;2022-10-03T10:06:00;99699.93;;;14.44;68.22
68506;BME280;55509;50.680;17.942;2022-10-03T10:26:22;99693.83;;;20.71;49.14
68506;BME280;55509;50.680;17.942;2022-10-03T10:33:15;99700.84;;;17.99;54.83
68506;BME280;55509;50.680;17.942;2022-10-03T10:39:50;99701.11;;;15.99;60.08
68506;BME280;55509;50.680;17.942;2022-10-03T11:35:57;99745.67;;;13.03;71.95
68506;BME280;55509;50.680;17.942;2022-10-03T11:45:48;99755.55;;;12.89;74.63
68506;BME280;55509;50.680;17.942;2022-10-03T11:49:16;99750.54;;;13.00;73.88
68506;BME280;55509;50.680;17.942;2022-10-03T12:12:47;99749.49;;;14.14;69.16
68506;BME280;55509;50.680;17.942;2022-10-03T12:15:53;99737.68;;;14.63;67.65
68506;BME280;55509;50.680;17.942;2022-10-03T12:19:12;99736.09;;;14.70;66.37
68506;BME280;55509;50.680;17.942;2022-10-03T12:22:54;99732.47;;;14.60;67.30
68506;BME280;55509;50.680;17.942;2022-10-03T12:26:02;99732.10;;;14.41;67.75
68506;BME280;55509;50.680;17.942;2022-10-03T12:29:10;99738.23;;;14.33;68.19
68506;BME280;55509;50.680;17.942;2022-10-03T12:35:56;99736.21;;;14.27;68.15
68506;BME280;55509;50.680;17.942;2022-10-03T12:42:38;99745.31;;;14.94;67.01
68506;BME280;55509;50.680;17.942;2022-10-03T12:45:51;99742.34;;;15.60;64.06
68506;BME280;55509;50.680;17.942;2022-10-03T12:48:59;99750.60;;;15.11;64.43
68506;BME280;55509;50.680;17.942;2022-10-03T12:52:14;99753.12;;;14.66;65.66
68506;BME280;55509;50.680;17.942;2022-10-03T12:58:34;99760.41;;;14.41;66.30
68506;BME280;55509;50.680;17.942;2022-10-03T13:11:58;99753.70;;;18.59;54.19
68506;BME280;55509;50.680;17.942;2022-10-03T13:25:44;99745.27;;;21.31;44.65
68506;BME280;55509;50.680;17.942;2022-10-03T13:29:11;99757.08;;;20.61;44.88
68506;BME280;55509;50.680;17.942;2022-10-03T13:42:55;99758.31;;;18.59;51.41
68506;BME280;55509;50.680;17.942;2022-10-03T13:45:41;99760.83;;;17.66;53.40
68506;BME280;55509;50.680;17.942;2022-10-03T13:48:51;99767.30;;;16.68;56.05
68506;BME280;55509;50.680;17.942;2022-10-03T13:52:17;99774.52;;;15.76;59.30
68506;BME280;55509;50.680;17.942;2022-10-03T13:58:43;99783.80;;;14.31;66.13
68506;BME280;55509;50.680;17.942;2022-10-03T14:08:26;99793.80;;;13.39;70.76
68506;BME280;55509;50.680;17.942;2022-10-03T14:18:38;99793.61;;;13.10;72.58
68506;BME280;55509;50.680;17.942;2022-10-03T14:44:55;99797.98;;;13.16;72.68
68506;BME280;55509;50.680;17.942;2022-10-03T14:48:06;99797.28;;;12.97;73.84
68506;BME280;55509;50.680;17.942;2022-10-03T14:54:49;99800.81;;;12.61;75.21
68506;BME280;55509;50.680;17.942;2022-10-03T14:57:58;99803.84;;;12.55;75.74
68506;BME280;55509;50.680;17.942;2022-10-03T15:04:26;99810.26;;;12.53;75.81
68506;BME280;55509;50.680;17.942;2022-10-03T15:07:40;99817.36;;;12.57;75.90
68506;BME280;55509;50.680;17.942;2022-10-03T15:10:44;99819.42;;;12.58;75.83
68506;BME280;55509;50.680;17.942;2022-10-03T15:13:57;99827.59;;;12.57;75.73
68506;BME280;55509;50.680;17.942;2022-10-03T15:17:06;99833.45;;;12.51;76.03
68506;BME280;55509;50.680;17.942;2022-10-03T15:20:28;99838.71;;;12.40;76.36
68506;BME280;55509;50.680;17.942;2022-10-03T15:23:41;99838.65;;;12.27;77.02
68506;BME280;55509;50.680;17.942;2022-10-03T15:26:49;99842.20;;;12.20;77.33
68506;BME280;55509;50.680;17.942;2022-10-03T15:29:58;99840.01;;;12.17;77.51
68506;BME280;55509;50.680;17.942;2022-10-03T15:33:10;99838.79;;;12.11;77.67
68506;BME280;55509;50.680;17.942;2022-10-03T15:36:25;99816.53;;;12.08;78.02
68506;BME280;55509;50.680;17.942;2022-10-03T15:39:33;99842.45;;;12.18;77.70
68506;BME280;55509;50.680;17.942;2022-10-03T15:42:48;99843.30;;;12.24;77.83
68506;BME280;55509;50.680;17.942;2022-10-03T15:45:51;99841.89;;;12.24;77.83
68506;BME280;55509;50.680;17.942;2022-10-03T15:49:01;99839.52;;;12.27;77.27
68506;BME280;55509;50.680;17.942;2022-10-03T15:52:39;99837.25;;;12.26;77.20
68506;BME280;55509;50.680;17.942;2022-10-03T15:55:58;99839.27;;;12.23;77.32
68506;BME280;55509;50.680;17.942;2022-10-03T15:59:29;99846.73;;;12.22;77.23
68506;BME280;55509;50.680;17.942;2022-10-03T16:02:44;99845.27;;;12.18;77.39
68506;BME280;55509;50.680;17.942;2022-10-03T16:06:02;99848.10;;;12.12;77.42
68506;BME280;55509;50.680;17.942;2022-10-03T16:09:16;99845.77;;;12.08;77.33
68506;BME280;55509;50.680;17.942;2022-10-03T16:19:39;99858.16;;;12.00;77.75
68506;BME280;55509;50.680;17.942;2022-10-03T16:22:48;99864.86;;;11.94;77.96
68506;BME280;55509;50.680;17.942;2022-10-03T16:26:13;99873.45;;;11.89;78.60
68506;BME280;55509;50.680;17.942;2022-10-03T16:29:21;99874.14;;;11.84;79.05
68506;BME280;55509;50.680;17.942;2022-10-03T16:32:27;99869.83;;;11.75;79.83
68506;BME280;55509;50.680;17.942;2022-10-03T16:38:42;99872.54;;;11.54;80.54
68506;BME280;55509;50.680;17.942;2022-10-03T16:41:45;99876.05;;;11.48;80.92
68506;BME280;55509;50.680;17.942;2022-10-03T16:44:51;99879.86;;;11.44;81.57
68506;BME280;55509;50.680;17.942;2022-10-03T16:47:59;99887.38;;;11.40;81.87
68506;BME280;55509;50.680;17.942;2022-10-03T16:51:41;99888.92;;;11.35;82.22
68506;BME280;55509;50.680;17.942;2022-10-03T16:54:45;99886.84;;;11.28;82.89
68506;BME280;55509;50.680;17.942;2022-10-03T16:58:03;99884.10;;;11.18;83.42
68506;BME280;55509;50.680;17.942;2022-10-03T17:01:22;99886.73;;;11.12;84.19
68506;BME280;55509;50.680;17.942;2022-10-03T17:04:29;99883.66;;;11.09;84.49
68506;BME280;55509;50.680;17.942;2022-10-03T17:07:39;99878.09;;;11.06;84.94
68506;BME280;55509;50.680;17.942;2022-10-03T17:10:43;99878.01;;;11.03;84.90
68506;BME280;55509;50.680;17.942;2022-10-03T17:13:51;99883.19;;;11.00;85.03
68506;BME280;55509;50.680;17.942;2022-10-03T17:20:37;99887.44;;;10.99;84.95
68506;BME280;55509;50.680;17.942;2022-10-03T17:24:02;99884.10;;;10.99;84.97
68506;BME280;55509;50.680;17.942;2022-10-03T17:27:31;99890.83;;;10.98;85.00
68506;BME280;55509;50.680;17.942;2022-10-03T17:30:52;99888.48;;;10.93;84.99
68506;BME280;55509;50.680;17.942;2022-10-03T17:34:21;99891.64;;;10.87;84.93
68506;BME280;55509;50.680;17.942;2022-10-03T17:37:32;99892.70;;;10.80;84.91
68506;BME280;55509;50.680;17.942;2022-10-03T17:47:31;99903.89;;;10.60;85.18
68506;BME280;55509;50.680;17.942;2022-10-03T17:50:51;99899.61;;;10.55;85.65
68506;BME280;55509;50.680;17.942;2022-10-03T17:53:56;99895.95;;;10.54;85.61
68506;BME280;55509;50.680;17.942;2022-10-03T17:57:12;99895.39;;;10.56;85.71
68506;BME280;55509;50.680;17.942;2022-10-03T18:00:30;99894.27;;;10.59;85.83
68506;BME280;55509;50.680;17.942;2022-10-03T18:03:46;99894.55;;;10.61;85.76
68506;BME280;55509;50.680;17.942;2022-10-03T18:10:26;99901.81;;;10.60;85.77
68506;BME280;55509;50.680;17.942;2022-10-03T18:16:36;99907.31;;;10.50;85.66
68506;BME280;55509;50.680;17.942;2022-10-03T18:19:58;99905.97;;;10.48;85.80
68506;BME280;55509;50.680;17.942;2022-10-03T18:23:11;99910.05;;;10.46;85.73
68506;BME280;55509;50.680;17.942;2022-10-03T18:26:36;99914.14;;;10.43;85.75
68506;BME280;55509;50.680;17.942;2022-10-03T18:29:51;99909.14;;;10.38;85.76
68506;BME280;55509;50.680;17.942;2022-10-03T18:32:58;99908.66;;;10.36;85.77
68506;BME280;55509;50.680;17.942;2022-10-03T18:36:09;99912.92;;;10.34;85.97
68506;BME280;55509;50.680;17.942;2022-10-03T18:39:20;99911.55;;;10.34;85.82
68506;BME280;55509;50.680;17.942;2022-10-03T18:42:30;99913.11;;;10.34;85.78
68506;BME280;55509;50.680;17.942;2022-10-03T18:45:42;99909.73;;;10.35;85.64
68506;BME280;55509;50.680;17.942;2022-10-03T18:49:04;99908.52;;;10.35;85.84
68506;BME280;55509;50.680;17.942;2022-10-03T18:52:51;99912.95;;;10.34;85.82
68506;BME280;55509;50.680;17.942;2022-10-03T18:55:58;99914.03;;;10.32;85.61
68506;BME280;55509;50.680;17.942;2022-10-03T19:02:31;99915.40;;;10.27;85.47
68506;BME280;55509;50.680;17.942;2022-10-03T19:05:44;99917.98;;;10.21;85.40
68506;BME280;55509;50.680;17.942;2022-10-03T19:08:58;99916.92;;;10.13;85.69
68506;BME280;55509;50.680;17.942;2022-10-03T19:15:26;99923.10;;;10.04;85.73
68506;BME280;55509;50.680;17.942;2022-10-03T19:18:41;99917.29;;;10.04;86.09
68506;BME280;55509;50.680;17.942;2022-10-03T19:21:44;99925.14;;;10.07;86.16
68506;BME280;55509;50.680;17.942;2022-10-03T19:24:49;99922.25;;;10.10;85.95
68506;BME280;55509;50.680;17.942;2022-10-03T19:27:56;99920.48;;;10.11;86.01
68506;BME280;55509;50.680;17.942;2022-10-03T19:32:14;99917.48;;;10.12;85.91
68506;BME280;55509;50.680;17.942;2022-10-03T19:34:48;99921.65;;;10.14;85.94
68506;BME280;55509;50.680;17.942;2022-10-03T19:37:53;99924.90;;;10.18;85.74
68506;BME280;55509;50.680;17.942;2022-10-03T19:41:11;99925.16;;;10.22;85.79
68506;BME280;55509;50.680;17.942;2022-10-03T19:44:21;99924.70;;;10.27;85.66
68506;BME280;55509;50.680;17.942;2022-10-03T19:47:34;99925.68;;;10.30;85.56
68506;BME280;55509;50.680;17.942;2022-10-03T19:50:38;99928.62;;;10.32;85.63
68506;BME280;55509;50.680;17.942;2022-10-03T19:53:40;99924.75;;;10.32;85.51
68506;BME280;55509;50.680;17.942;2022-10-03T19:56:43;99926.98;;;10.34;85.60
68506;BME280;55509;50.680;17.942;2022-10-03T19:59:49;99927.11;;;10.37;85.65
68506;BME280;55509;50.680;17.942;2022-10-03T20:03:02;99928.95;;;10.40;85.69
68506;BME280;55509;50.680;17.942;2022-10-03T20:06:34;99929.23;;;10.44;85.61
68506;BME280;55509;50.680;17.942;2022-10-03T20:09:39;99926.06;;;10.45;86.00
68506;BME280;55509;50.680;17.942;2022-10-03T20:12:48;99928.38;;;10.43;86.43
68506;BME280;55509;50.680;17.942;2022-10-03T20:15:55;99921.02;;;10.42;86.46
68506;BME280;55509;50.680;17.942;2022-10-03T20:19:05;99917.33;;;10.41;86.73
68506;BME280;55509;50.680;17.942;2022-10-03T20:22:12;99918.34;;;10.43;86.83
68506;BME280;55509;50.680;17.942;2022-10-03T20:25:30;99924.88;;;10.42;87.00
68506;BME280;55509;50.680;17.942;2022-10-03T20:28:47;99922.14;;;10.38;86.74
68506;BME280;55509;50.680;17.942;2022-10-03T20:32:01;99918.42;;;10.32;87.02
68506;BME280;55509;50.680;17.942;2022-10-03T20:35:03;99916.82;;;10.26;87.00
68506;BME280;55509;50.680;17.942;2022-10-03T20:48:02;99910.22;;;10.22;87.58
68506;BME280;55509;50.680;17.942;2022-10-03T20:51:05;99906.73;;;10.21;87.94
68506;BME280;55509;50.680;17.942;2022-10-03T20:54:22;99911.98;;;10.22;87.63
68506;BME280;55509;50.680;17.942;2022-10-03T20:57:47;99919.34;;;10.23;87.48
68506;BME280;55509;50.680;17.942;2022-10-03T21:01:24;99922.65;;;10.25;87.75
68506;BME280;55509;50.680;17.942;2022-10-03T21:04:33;99921.33;;;10.28;87.85
68506;BME280;55509;50.680;17.942;2022-10-03T21:07:41;99924.45;;;10.30;87.90
68506;BME280;55509;50.680;17.942;2022-10-03T21:10:50;99925.48;;;10.31;87.95
68506;BME280;55509;50.680;17.942;2022-10-03T21:14:03;99922.64;;;10.32;87.99
68506;BME280;55509;50.680;17.942;2022-10-03T21:17:15;99923.82;;;10.35;87.98
68506;BME280;55509;50.680;17.942;2022-10-03T21:20:23;99923.91;;;10.38;88.14
68506;BME280;55509;50.680;17.942;2022-10-03T21:23:28;99926.11;;;10.42;88.01
68506;BME280;55509;50.680;17.942;2022-10-03T21:26:37;99925.52;;;10.45;87.97
68506;BME280;55509;50.680;17.942;2022-10-03T21:30:15;99924.42;;;10.48;87.97
68506;BME280;55509;50.680;17.942;2022-10-03T21:33:26;99927.02;;;10.50;87.85
68506;BME280;55509;50.680;17.942;2022-10-03T21:49:56;99922.10;;;10.57;88.01
68506;BME280;55509;50.680;17.942;2022-10-03T21:53:22;99923.17;;;10.56;88.13
68506;BME280;55509;50.680;17.942;2022-10-03T21:56:45;99923.32;;;10.57;88.01
68506;BME280;55509;50.680;17.942;2022-10-03T22:03:21;99925.46;;;10.63;88.15
68506;BME280;55509;50.680;17.942;2022-10-03T22:06:27;99928.02;;;10.66;88.21
68506;BME280;55509;50.680;17.942;2022-10-03T22:09:33;99931.02;;;10.66;88.19
68506;BME280;55509;50.680;17.942;2022-10-03T22:12:41;99930.02;;;10.64;88.17
68506;BME280;55509;50.680;17.942;2022-10-03T22:15:54;99924.45;;;10.62;88.26
68506;BME280;55509;50.680;17.942;2022-10-03T22:19:19;99921.30;;;10.60;88.23
68506;BME280;55509;50.680;17.942;2022-10-03T22:26:29;99918.49;;;10.61;88.42
68506;BME280;55509;50.680;17.942;2022-10-03T22:35:53;99911.15;;;10.59;88.38
68506;BME280;55509;50.680;17.942;2022-10-03T22:38:56;99913.16;;;10.56;88.53
68506;BME280;55509;50.680;17.942;2022-10-03T22:41:59;99908.05;;;10.55;88.30
68506;BME280;55509;50.680;17.942;2022-10-03T22:45:03;99909.11;;;10.55;88.30
68506;BME280;55509;50.680;17.942;2022-10-03T22:48:11;99906.11;;;10.56;88.35
68506;BME280;55509;50.680;17.942;2022-10-03T22:51:17;99909.27;;;10.56;88.13
68506;BME280;55509;50.680;17.942;2022-10-03T22:54:20;99909.98;;;10.56;88.14
68506;BME280;55509;50.680;17.942;2022-10-03T22:57:24;99909.14;;;10.54;88.22
68506;BME280;55509;50.680;17.942;2022-10-03T23:00:28;99906.15;;;10.54;87.96
68506;BME280;55509;50.680;17.942;2022-10-03T23:03:34;99904.73;;;10.54;88.14
68506;BME280;55509;50.680;17.942;2022-10-03T23:07:03;99901.55;;;10.55;87.94
68506;BME280;55509;50.680;17.942;2022-10-03T23:13:33;99901.68;;;10.58;87.84
68506;BME280;55509;50.680;17.942;2022-10-03T23:23:13;99901.15;;;10.65;87.32
68506;BME280;55509;50.680;17.942;2022-10-03T23:26:51;99902.06;;;10.63;87.32
68506;BME280;55509;50.680;17.942;2022-10-03T23:37:40;99905.48;;;10.60;87.28
68506;BME280;55509;50.680;17.942;2022-10-03T23:40:39;99898.84;;;10.59;87.38
68506;BME280;55509;50.680;17.942;2022-10-03T23:43:49;99906.77;;;10.58;87.24
68506;BME280;55509;50.680;17.942;2022-10-03T23:46:55;99902.75;;;10.57;87.45
68506;BME280;55509;50.680;17.942;2022-10-03T23:49:59;99904.48;;;10.58;87.21
68506;BME280;55509;50.680;17.942;2022-10-03T23:53:03;99903.36;;;10.61;87.26
68506;BME280;55509;50.680;17.942;2022-10-03T23:56:07;99899.80;;;10.62;87.25
68506;BME280;55509;50.680;17.942;2022-10-03T23:59:24;99898.02;;;10.63;87.21
